sensor_id;sensor_type;location;lat;lon;timestamp;P1;durP1;ratioP1;P2;durP2;ratioP2
3881;SDS011;1956;53.482;10.238;2022-07-21T00:01:40;18.80;;;12.97;;
3881;SDS011;1956;53.482;10.238;2022-07-21T00:06:40;17.43;;;12.23;;
3881;SDS011;1956;53.482;10.238;2022-07-21T00:11:42;16.33;;;10.97;;
3881;SDS011;1956;53.482;10.238;2022-07-21T00:16:42;18.60;;;12.20;;
3881;SDS011;1956;53.482;10.238;2022-07-21T00:21:43;19.97;;;12.20;;
3881;SDS011;1956;53.482;10.238;2022-07-21T00:26:43;17.30;;;10.80;;
3881;SDS011;1956;53.482;10.238;2022-07-21T00:31:45;19.33;;;11.10;;
3881;SDS011;1956;53.482;10.238;2022-07-21T00:36:45;16.93;;;10.63;;
3881;SDS011;1956;53.482;10.238;2022-07-21T00:41:46;17.13;;;10.27;;
3881;SDS011;1956;53.482;10.238;2022-07-21T00:46:46;17.07;;;10.60;;
3881;SDS011;1956;53.482;10.238;2022-07-21T00:51:47;16.50;;;10.23;;
3881;SDS011;1956;53.482;10.238;2022-07-21T00:56:48;14.93;;;10.00;;
3881;SDS011;1956;53.482;10.238;2022-07-21T01:01:48;22.43;;;10.33;;
3881;SDS011;1956;53.482;10.238;2022-07-21T01:06:48;11.50;;;9.70;;
3881;SDS011;1956;53.482;10.238;2022-07-21T01:11:49;18.10;;;10.50;;
3881;SDS011;1956;53.482;10.238;2022-07-21T01:16:49;18.57;;;10.23;;
3881;SDS011;1956;53.482;10.238;2022-07-21T01:21:50;16.67;;;9.60;;
3881;SDS011;1956;53.482;10.238;2022-07-21T01:26:52;13.53;;;9.80;;
3881;SDS011;1956;53.482;10.238;2022-07-21T01:31:53;17.77;;;10.80;;
3881;SDS011;1956;53.482;10.238;2022-07-21T01:36:53;16.30;;;10.40;;
3881;SDS011;1956;53.482;10.238;2022-07-21T01:41:54;27.57;;;10.97;;
3881;SDS011;1956;53.482;10.238;2022-07-21T01:46:54;18.47;;;9.70;;
3881;SDS011;1956;53.482;10.238;2022-07-21T01:51:54;17.97;;;10.00;;
3881;SDS011;1956;53.482;10.238;2022-07-21T01:56:55;15.70;;;10.40;;
3881;SDS011;1956;53.482;10.238;2022-07-21T02:01:55;16.70;;;9.90;;
3881;SDS011;1956;53.482;10.238;2022-07-21T02:06:56;23.40;;;12.50;;
3881;SDS011;1956;53.482;10.238;2022-07-21T02:11:56;15.77;;;12.60;;
3881;SDS011;1956;53.482;10.238;2022-07-21T02:16:57;21.20;;;11.20;;
3881;SDS011;1956;53.482;10.238;2022-07-21T02:21:57;15.93;;;11.00;;
3881;SDS011;1956;53.482;10.238;2022-07-21T02:26:57;19.73;;;11.17;;
3881;SDS011;1956;53.482;10.238;2022-07-21T02:31:58;16.17;;;11.90;;
3881;SDS011;1956;53.482;10.238;2022-07-21T02:36:58;22.10;;;12.00;;
3881;SDS011;1956;53.482;10.238;2022-07-21T02:41:58;21.60;;;12.87;;
3881;SDS011;1956;53.482;10.238;2022-07-21T02:46:59;19.40;;;13.23;;
3881;SDS011;1956;53.482;10.238;2022-07-21T02:51:59;20.40;;;11.37;;
3881;SDS011;1956;53.482;10.238;2022-07-21T02:56:59;18.33;;;13.03;;
3881;SDS011;1956;53.482;10.238;2022-07-21T03:02:00;37.93;;;14.47;;
3881;SDS011;1956;53.482;10.238;2022-07-21T03:07:00;25.93;;;14.30;;
3881;SDS011;1956;53.482;10.238;2022-07-21T03:12:02;21.50;;;13.00;;
3881;SDS011;1956;53.482;10.238;2022-07-21T03:17:03;40.43;;;16.70;;
3881;SDS011;1956;53.482;10.238;2022-07-21T03:22:03;27.70;;;15.10;;
3881;SDS011;1956;53.482;10.238;2022-07-21T03:27:04;30.93;;;18.03;;
3881;SDS011;1956;53.482;10.238;2022-07-21T03:32:04;28.10;;;14.37;;
3881;SDS011;1956;53.482;10.238;2022-07-21T03:37:05;23.50;;;14.23;;
3881;SDS011;1956;53.482;10.238;2022-07-21T03:42:05;19.50;;;12.93;;
3881;SDS011;1956;53.482;10.238;2022-07-21T03:47:06;19.83;;;11.60;;
3881;SDS011;1956;53.482;10.238;2022-07-21T03:52:06;28.63;;;11.93;;
3881;SDS011;1956;53.482;10.238;2022-07-21T03:57:06;26.03;;;10.30;;
3881;SDS011;1956;53.482;10.238;2022-07-21T04:02:07;27.20;;;10.80;;
3881;SDS011;1956;53.482;10.238;2022-07-21T04:07:07;20.43;;;9.23;;
3881;SDS011;1956;53.482;10.238;2022-07-21T04:12:08;18.40;;;9.23;;
3881;SDS011;1956;53.482;10.238;2022-07-21T04:17:08;15.80;;;8.57;;
3881;SDS011;1956;53.482;10.238;2022-07-21T04:22:09;26.03;;;9.47;;
3881;SDS011;1956;53.482;10.238;2022-07-21T04:27:09;19.47;;;7.77;;
3881;SDS011;1956;53.482;10.238;2022-07-21T04:32:10;16.80;;;7.67;;
3881;SDS011;1956;53.482;10.238;2022-07-21T04:37:10;14.20;;;6.93;;
3881;SDS011;1956;53.482;10.238;2022-07-21T04:42:11;18.30;;;6.83;;
3881;SDS011;1956;53.482;10.238;2022-07-21T04:47:11;10.67;;;6.60;;
3881;SDS011;1956;53.482;10.238;2022-07-21T04:52:12;20.43;;;6.10;;
3881;SDS011;1956;53.482;10.238;2022-07-21T04:57:12;15.60;;;6.30;;
3881;SDS011;1956;53.482;10.238;2022-07-21T05:02:13;11.30;;;4.97;;
3881;SDS011;1956;53.482;10.238;2022-07-21T05:07:13;8.73;;;4.53;;
3881;SDS011;1956;53.482;10.238;2022-07-21T05:12:13;12.50;;;5.03;;
3881;SDS011;1956;53.482;10.238;2022-07-21T05:17:14;18.13;;;4.87;;
3881;SDS011;1956;53.482;10.238;2022-07-21T05:22:14;7.93;;;4.20;;
3881;SDS011;1956;53.482;10.238;2022-07-21T05:27:14;6.47;;;3.50;;
3881;SDS011;1956;53.482;10.238;2022-07-21T05:32:15;8.47;;;4.47;;
3881;SDS011;1956;53.482;10.238;2022-07-21T05:37:15;8.83;;;3.97;;
3881;SDS011;1956;53.482;10.238;2022-07-21T05:42:16;7.97;;;4.93;;
3881;SDS011;1956;53.482;10.238;2022-07-21T05:47:16;14.90;;;4.17;;
3881;SDS011;1956;53.482;10.238;2022-07-21T05:52:16;7.10;;;3.93;;
3881;SDS011;1956;53.482;10.238;2022-07-21T05:57:17;10.87;;;4.47;;
3881;SDS011;1956;53.482;10.238;2022-07-21T06:02:20;8.23;;;4.10;;
3881;SDS011;1956;53.482;10.238;2022-07-21T06:07:21;9.30;;;4.80;;
3881;SDS011;1956;53.482;10.238;2022-07-21T06:12:21;16.70;;;4.60;;
3881;SDS011;1956;53.482;10.238;2022-07-21T06:17:22;10.27;;;4.40;;
3881;SDS011;1956;53.482;10.238;2022-07-21T06:22:22;15.83;;;4.70;;
3881;SDS011;1956;53.482;10.238;2022-07-21T06:27:23;15.27;;;5.43;;
3881;SDS011;1956;53.482;10.238;2022-07-21T06:32:23;10.17;;;5.30;;
3881;SDS011;1956;53.482;10.238;2022-07-21T06:37:23;12.30;;;6.27;;
3881;SDS011;1956;53.482;10.238;2022-07-21T06:42:24;10.70;;;5.57;;
3881;SDS011;1956;53.482;10.238;2022-07-21T06:47:24;16.07;;;5.70;;
3881;SDS011;1956;53.482;10.238;2022-07-21T06:52:25;15.13;;;7.47;;
3881;SDS011;1956;53.482;10.238;2022-07-21T06:57:25;10.77;;;6.13;;
3881;SDS011;1956;53.482;10.238;2022-07-21T07:02:25;10.10;;;6.03;;
3881;SDS011;1956;53.482;10.238;2022-07-21T07:07:26;13.77;;;6.73;;
3881;SDS011;1956;53.482;10.238;2022-07-21T07:12:29;16.77;;;8.03;;
3881;SDS011;1956;53.482;10.238;2022-07-21T07:17:29;21.17;;;7.30;;
3881;SDS011;1956;53.482;10.238;2022-07-21T07:22:30;20.00;;;8.53;;
3881;SDS011;1956;53.482;10.238;2022-07-21T07:27:30;17.60;;;8.00;;
3881;SDS011;1956;53.482;10.238;2022-07-21T07:32:30;23.30;;;9.03;;
3881;SDS011;1956;53.482;10.238;2022-07-21T07:37:32;14.00;;;9.83;;
3881;SDS011;1956;53.482;10.238;2022-07-21T07:42:34;33.80;;;10.30;;
3881;SDS011;1956;53.482;10.238;2022-07-21T07:47:35;20.97;;;9.80;;
3881;SDS011;1956;53.482;10.238;2022-07-21T07:52:36;16.40;;;11.57;;
3881;SDS011;1956;53.482;10.238;2022-07-21T07:57:38;18.90;;;10.47;;
3881;SDS011;1956;53.482;10.238;2022-07-21T08:02:39;17.33;;;9.93;;
3881;SDS011;1956;53.482;10.238;2022-07-21T08:07:40;23.70;;;12.10;;
3881;SDS011;1956;53.482;10.238;2022-07-21T08:12:40;24.07;;;11.20;;
3881;SDS011;1956;53.482;10.238;2022-07-21T08:17:41;25.87;;;11.03;;
3881;SDS011;1956;53.482;10.238;2022-07-21T08:22:42;22.23;;;11.20;;
3881;SDS011;1956;53.482;10.238;2022-07-21T08:27:42;19.60;;;11.47;;
3881;SDS011;1956;53.482;10.238;2022-07-21T08:32:42;21.57;;;13.87;;
3881;SDS011;1956;53.482;10.238;2022-07-21T08:37:51;23.63;;;13.40;;
3881;SDS011;1956;53.482;10.238;2022-07-21T08:42:53;30.13;;;14.13;;
3881;SDS011;1956;53.482;10.238;2022-07-21T08:47:55;26.87;;;15.50;;
3881;SDS011;1956;53.482;10.238;2022-07-21T08:52:56;24.03;;;14.93;;
3881;SDS011;1956;53.482;10.238;2022-07-21T08:57:56;22.30;;;14.90;;
3881;SDS011;1956;53.482;10.238;2022-07-21T09:08:34;30.07;;;17.20;;
3881;SDS011;1956;53.482;10.238;2022-07-21T09:13:36;32.73;;;16.30;;
3881;SDS011;1956;53.482;10.238;2022-07-21T09:18:46;27.37;;;18.83;;
3881;SDS011;1956;53.482;10.238;2022-07-21T09:23:50;25.10;;;16.40;;
3881;SDS011;1956;53.482;10.238;2022-07-21T09:28:53;25.90;;;18.50;;
3881;SDS011;1956;53.482;10.238;2022-07-21T09:34:12;24.37;;;16.30;;
3881;SDS011;1956;53.482;10.238;2022-07-21T09:39:14;24.40;;;15.97;;
3881;SDS011;1956;53.482;10.238;2022-07-21T09:44:14;31.07;;;20.10;;
3881;SDS011;1956;53.482;10.238;2022-07-21T09:49:33;36.40;;;18.10;;
3881;SDS011;1956;53.482;10.238;2022-07-21T09:54:33;29.50;;;21.07;;
3881;SDS011;1956;53.482;10.238;2022-07-21T09:59:34;24.17;;;17.77;;
3881;SDS011;1956;53.482;10.238;2022-07-21T10:04:34;27.50;;;16.90;;
3881;SDS011;1956;53.482;10.238;2022-07-21T10:09:35;21.30;;;15.20;;
3881;SDS011;1956;53.482;10.238;2022-07-21T10:14:35;29.00;;;17.57;;
3881;SDS011;1956;53.482;10.238;2022-07-21T10:19:41;30.40;;;16.77;;
3881;SDS011;1956;53.482;10.238;2022-07-21T10:24:45;32.73;;;17.70;;
3881;SDS011;1956;53.482;10.238;2022-07-21T10:35:25;24.67;;;15.00;;
3881;SDS011;1956;53.482;10.238;2022-07-21T10:40:38;22.37;;;14.73;;
3881;SDS011;1956;53.482;10.238;2022-07-21T10:45:39;20.60;;;14.00;;
3881;SDS011;1956;53.482;10.238;2022-07-21T10:50:41;16.40;;;13.93;;
3881;SDS011;1956;53.482;10.238;2022-07-21T10:55:49;15.73;;;12.00;;
3881;SDS011;1956;53.482;10.238;2022-07-21T11:00:54;18.37;;;13.00;;
3881;SDS011;1956;53.482;10.238;2022-07-21T11:06:12;21.83;;;13.17;;
3881;SDS011;1956;53.482;10.238;2022-07-21T11:11:24;13.33;;;11.60;;
3881;SDS011;1956;53.482;10.238;2022-07-21T11:27:32;11.90;;;9.50;;
3881;SDS011;1956;53.482;10.238;2022-07-21T11:32:34;10.67;;;8.60;;
3881;SDS011;1956;53.482;10.238;2022-07-21T11:37:45;15.40;;;7.83;;
3881;SDS011;1956;53.482;10.238;2022-07-21T11:42:47;12.70;;;9.77;;
3881;SDS011;1956;53.482;10.238;2022-07-21T11:47:48;13.20;;;7.73;;
3881;SDS011;1956;53.482;10.238;2022-07-21T11:52:49;11.73;;;8.77;;
3881;SDS011;1956;53.482;10.238;2022-07-21T11:57:50;8.40;;;7.00;;
3881;SDS011;1956;53.482;10.238;2022-07-21T12:02:50;9.27;;;8.13;;
3881;SDS011;1956;53.482;10.238;2022-07-21T12:07:50;10.20;;;7.53;;
3881;SDS011;1956;53.482;10.238;2022-07-21T12:13:04;12.13;;;6.67;;
3881;SDS011;1956;53.482;10.238;2022-07-21T12:18:06;8.27;;;7.47;;
3881;SDS011;1956;53.482;10.238;2022-07-21T12:23:29;6.80;;;6.03;;
3881;SDS011;1956;53.482;10.238;2022-07-21T12:28:43;8.63;;;6.77;;
3881;SDS011;1956;53.482;10.238;2022-07-21T12:33:48;7.63;;;6.30;;
3881;SDS011;1956;53.482;10.238;2022-07-21T12:38:52;7.17;;;6.47;;
3881;SDS011;1956;53.482;10.238;2022-07-21T12:43:53;6.87;;;6.00;;
3881;SDS011;1956;53.482;10.238;2022-07-21T12:49:07;6.47;;;5.43;;
3881;SDS011;1956;53.482;10.238;2022-07-21T12:54:12;5.30;;;4.70;;
3881;SDS011;1956;53.482;10.238;2022-07-21T12:59:12;5.10;;;4.70;;
3881;SDS011;1956;53.482;10.238;2022-07-21T13:04:14;7.83;;;4.40;;
3881;SDS011;1956;53.482;10.238;2022-07-21T13:09:14;4.30;;;3.97;;
3881;SDS011;1956;53.482;10.238;2022-07-21T13:14:15;4.50;;;4.20;;
3881;SDS011;1956;53.482;10.238;2022-07-21T13:19:15;5.10;;;4.33;;
3881;SDS011;1956;53.482;10.238;2022-07-21T13:24:15;5.30;;;4.80;;
3881;SDS011;1956;53.482;10.238;2022-07-21T13:29:16;7.70;;;4.50;;
3881;SDS011;1956;53.482;10.238;2022-07-21T13:34:16;6.80;;;6.10;;
3881;SDS011;1956;53.482;10.238;2022-07-21T13:39:17;6.57;;;4.60;;
3881;SDS011;1956;53.482;10.238;2022-07-21T13:44:17;4.57;;;4.13;;
3881;SDS011;1956;53.482;10.238;2022-07-21T13:49:17;5.63;;;4.70;;
3881;SDS011;1956;53.482;10.238;2022-07-21T13:54:18;5.00;;;4.50;;
3881;SDS011;1956;53.482;10.238;2022-07-21T13:59:18;3.97;;;3.67;;
3881;SDS011;1956;53.482;10.238;2022-07-21T14:04:19;3.70;;;3.30;;
3881;SDS011;1956;53.482;10.238;2022-07-21T14:09:19;4.40;;;3.67;;
3881;SDS011;1956;53.482;10.238;2022-07-21T14:14:20;4.40;;;4.00;;
3881;SDS011;1956;53.482;10.238;2022-07-21T14:19:26;4.10;;;3.40;;
3881;SDS011;1956;53.482;10.238;2022-07-21T14:24:26;7.87;;;3.80;;
3881;SDS011;1956;53.482;10.238;2022-07-21T14:29:45;4.50;;;3.37;;
3881;SDS011;1956;53.482;10.238;2022-07-21T14:34:45;3.10;;;2.80;;
3881;SDS011;1956;53.482;10.238;2022-07-21T14:39:46;4.17;;;3.70;;
3881;SDS011;1956;53.482;10.238;2022-07-21T14:44:47;4.37;;;3.83;;
3881;SDS011;1956;53.482;10.238;2022-07-21T14:49:48;4.20;;;3.10;;
3881;SDS011;1956;53.482;10.238;2022-07-21T14:54:48;3.10;;;2.90;;
3881;SDS011;1956;53.482;10.238;2022-07-21T14:59:48;4.23;;;3.00;;
3881;SDS011;1956;53.482;10.238;2022-07-21T15:04:50;2.57;;;2.47;;
3881;SDS011;1956;53.482;10.238;2022-07-21T15:09:50;2.80;;;2.20;;
3881;SDS011;1956;53.482;10.238;2022-07-21T15:14:51;5.17;;;4.50;;
3881;SDS011;1956;53.482;10.238;2022-07-21T15:19:51;17.27;;;8.00;;
3881;SDS011;1956;53.482;10.238;2022-07-21T15:24:52;19.00;;;11.07;;
3881;SDS011;1956;53.482;10.238;2022-07-21T15:29:52;17.27;;;9.10;;
3881;SDS011;1956;53.482;10.238;2022-07-21T15:34:53;12.60;;;9.27;;
3881;SDS011;1956;53.482;10.238;2022-07-21T15:39:53;18.97;;;10.17;;
3881;SDS011;1956;53.482;10.238;2022-07-21T15:44:53;13.47;;;10.23;;
3881;SDS011;1956;53.482;10.238;2022-07-21T15:49:54;18.00;;;10.10;;
3881;SDS011;1956;53.482;10.238;2022-07-21T15:54:54;10.93;;;9.80;;
3881;SDS011;1956;53.482;10.238;2022-07-21T15:59:55;11.13;;;8.57;;
3881;SDS011;1956;53.482;10.238;2022-07-21T16:04:56;14.47;;;8.10;;
3881;SDS011;1956;53.482;10.238;2022-07-21T16:09:56;12.10;;;8.53;;
3881;SDS011;1956;53.482;10.238;2022-07-21T16:14:56;8.80;;;6.90;;
3881;SDS011;1956;53.482;10.238;2022-07-21T16:19:57;7.43;;;5.90;;
3881;SDS011;1956;53.482;10.238;2022-07-21T16:24:57;6.50;;;5.90;;
3881;SDS011;1956;53.482;10.238;2022-07-21T16:29:58;7.20;;;6.10;;
3881;SDS011;1956;53.482;10.238;2022-07-21T16:34:58;7.07;;;6.10;;
3881;SDS011;1956;53.482;10.238;2022-07-21T16:39:58;9.77;;;6.77;;
3881;SDS011;1956;53.482;10.238;2022-07-21T16:44:59;8.63;;;7.73;;
3881;SDS011;1956;53.482;10.238;2022-07-21T16:49:59;12.30;;;8.73;;
3881;SDS011;1956;53.482;10.238;2022-07-21T16:55:00;8.90;;;8.10;;
3881;SDS011;1956;53.482;10.238;2022-07-21T17:00:00;11.57;;;7.80;;
3881;SDS011;1956;53.482;10.238;2022-07-21T17:05:01;9.93;;;8.93;;
3881;SDS011;1956;53.482;10.238;2022-07-21T17:10:01;10.53;;;8.67;;
3881;SDS011;1956;53.482;10.238;2022-07-21T17:15:03;10.63;;;9.53;;
3881;SDS011;1956;53.482;10.238;2022-07-21T17:20:05;12.40;;;9.67;;
3881;SDS011;1956;53.482;10.238;2022-07-21T17:25:07;10.10;;;9.10;;
3881;SDS011;1956;53.482;10.238;2022-07-21T17:30:10;9.63;;;8.67;;
3881;SDS011;1956;53.482;10.238;2022-07-21T17:35:10;11.03;;;9.73;;
3881;SDS011;1956;53.482;10.238;2022-07-21T17:40:11;13.57;;;10.67;;
3881;SDS011;1956;53.482;10.238;2022-07-21T17:45:12;13.20;;;10.37;;
3881;SDS011;1956;53.482;10.238;2022-07-21T17:50:13;12.67;;;11.27;;
3881;SDS011;1956;53.482;10.238;2022-07-21T17:55:13;15.40;;;11.90;;
3881;SDS011;1956;53.482;10.238;2022-07-21T18:00:14;13.17;;;11.77;;
3881;SDS011;1956;53.482;10.238;2022-07-21T18:05:15;12.97;;;11.67;;
3881;SDS011;1956;53.482;10.238;2022-07-21T18:10:16;14.03;;;12.40;;
3881;SDS011;1956;53.482;10.238;2022-07-21T18:15:17;20.90;;;12.93;;
3881;SDS011;1956;53.482;10.238;2022-07-21T18:20:17;16.10;;;13.80;;
3881;SDS011;1956;53.482;10.238;2022-07-21T18:25:18;15.17;;;13.70;;
3881;SDS011;1956;53.482;10.238;2022-07-21T18:30:19;15.87;;;13.77;;
3881;SDS011;1956;53.482;10.238;2022-07-21T18:35:20;18.73;;;14.23;;
3881;SDS011;1956;53.482;10.238;2022-07-21T18:40:20;16.37;;;14.07;;
3881;SDS011;1956;53.482;10.238;2022-07-21T18:45:21;23.00;;;15.60;;
3881;SDS011;1956;53.482;10.238;2022-07-21T18:50:22;20.23;;;14.27;;
3881;SDS011;1956;53.482;10.238;2022-07-21T18:55:22;18.97;;;16.90;;
3881;SDS011;1956;53.482;10.238;2022-07-21T19:00:23;16.70;;;13.30;;
3881;SDS011;1956;53.482;10.238;2022-07-21T19:05:23;16.20;;;14.50;;
3881;SDS011;1956;53.482;10.238;2022-07-21T19:10:23;13.93;;;10.87;;
3881;SDS011;1956;53.482;10.238;2022-07-21T19:15:24;12.73;;;10.73;;
3881;SDS011;1956;53.482;10.238;2022-07-21T19:20:25;10.80;;;9.47;;
3881;SDS011;1956;53.482;10.238;2022-07-21T19:25:25;15.27;;;9.27;;
3881;SDS011;1956;53.482;10.238;2022-07-21T19:30:26;9.30;;;8.40;;
3881;SDS011;1956;53.482;10.238;2022-07-21T19:35:26;9.50;;;8.50;;
3881;SDS011;1956;53.482;10.238;2022-07-21T19:40:28;9.77;;;8.77;;
3881;SDS011;1956;53.482;10.238;2022-07-21T19:45:29;13.33;;;9.80;;
3881;SDS011;1956;53.482;10.238;2022-07-21T19:50:29;10.37;;;9.30;;
3881;SDS011;1956;53.482;10.238;2022-07-21T19:55:30;10.77;;;9.67;;
3881;SDS011;1956;53.482;10.238;2022-07-21T20:00:30;13.53;;;9.50;;
3881;SDS011;1956;53.482;10.238;2022-07-21T20:05:31;12.80;;;10.10;;
3881;SDS011;1956;53.482;10.238;2022-07-21T20:10:32;13.60;;;10.90;;
3881;SDS011;1956;53.482;10.238;2022-07-21T20:15:32;11.10;;;9.73;;
3881;SDS011;1956;53.482;10.238;2022-07-21T20:20:33;11.57;;;9.37;;
3881;SDS011;1956;53.482;10.238;2022-07-21T20:25:34;17.40;;;9.33;;
3881;SDS011;1956;53.482;10.238;2022-07-21T20:30:35;10.90;;;9.20;;
3881;SDS011;1956;53.482;10.238;2022-07-21T20:35:36;10.30;;;9.30;;
3881;SDS011;1956;53.482;10.238;2022-07-21T20:40:36;10.77;;;9.67;;
3881;SDS011;1956;53.482;10.238;2022-07-21T20:45:39;19.63;;;10.13;;
3881;SDS011;1956;53.482;10.238;2022-07-21T20:50:39;16.30;;;10.53;;
3881;SDS011;1956;53.482;10.238;2022-07-21T20:55:40;10.63;;;9.60;;
3881;SDS011;1956;53.482;10.238;2022-07-21T21:00:40;14.27;;;10.10;;
3881;SDS011;1956;53.482;10.238;2022-07-21T21:05:40;10.67;;;9.57;;
3881;SDS011;1956;53.482;10.238;2022-07-21T21:10:41;11.57;;;10.30;;
3881;SDS011;1956;53.482;10.238;2022-07-21T21:15:41;13.93;;;12.40;;
3881;SDS011;1956;53.482;10.238;2022-07-21T21:20:42;12.67;;;11.33;;
3881;SDS011;1956;53.482;10.238;2022-07-21T21:25:42;14.13;;;11.37;;
3881;SDS011;1956;53.482;10.238;2022-07-21T21:30:43;17.93;;;11.70;;
3881;SDS011;1956;53.482;10.238;2022-07-21T21:35:43;13.63;;;11.40;;
3881;SDS011;1956;53.482;10.238;2022-07-21T21:40:44;12.70;;;11.40;;
3881;SDS011;1956;53.482;10.238;2022-07-21T21:45:44;18.30;;;11.30;;
3881;SDS011;1956;53.482;10.238;2022-07-21T21:50:45;15.73;;;11.60;;
3881;SDS011;1956;53.482;10.238;2022-07-21T21:55:45;14.00;;;11.80;;
3881;SDS011;1956;53.482;10.238;2022-07-21T22:00:45;19.90;;;12.27;;
3881;SDS011;1956;53.482;10.238;2022-07-21T22:05:46;16.90;;;12.10;;
3881;SDS011;1956;53.482;10.238;2022-07-21T22:10:46;20.57;;;11.50;;
3881;SDS011;1956;53.482;10.238;2022-07-21T22:15:46;14.40;;;12.03;;
3881;SDS011;1956;53.482;10.238;2022-07-21T22:20:47;15.00;;;12.47;;
3881;SDS011;1956;53.482;10.238;2022-07-21T22:25:47;15.50;;;13.03;;
3881;SDS011;1956;53.482;10.238;2022-07-21T22:30:48;15.50;;;12.90;;
3881;SDS011;1956;53.482;10.238;2022-07-21T22:35:48;17.57;;;13.53;;
3881;SDS011;1956;53.482;10.238;2022-07-21T22:40:49;15.33;;;13.60;;
3881;SDS011;1956;53.482;10.238;2022-07-21T22:45:49;16.77;;;12.90;;
3881;SDS011;1956;53.482;10.238;2022-07-21T22:50:49;18.13;;;13.10;;
3881;SDS011;1956;53.482;10.238;2022-07-21T22:55:50;20.17;;;14.87;;
3881;SDS011;1956;53.482;10.238;2022-07-21T23:00:50;20.50;;;15.00;;
3881;SDS011;1956;53.482;10.238;2022-07-21T23:05:50;19.20;;;15.53;;
3881;SDS011;1956;53.482;10.238;2022-07-21T23:10:51;26.43;;;15.60;;
3881;SDS011;1956;53.482;10.238;2022-07-21T23:15:51;20.50;;;15.67;;
3881;SDS011;1956;53.482;10.238;2022-07-21T23:20:52;21.83;;;17.13;;
3881;SDS011;1956;53.482;10.238;2022-07-21T23:25:52;20.20;;;15.17;;
3881;SDS011;1956;53.482;10.238;2022-07-21T23:30:52;20.40;;;16.13;;
3881;SDS011;1956;53.482;10.238;2022-07-21T23:35:53;25.40;;;17.40;;
3881;SDS011;1956;53.482;10.238;2022-07-21T23:40:54;22.97;;;18.37;;
3881;SDS011;1956;53.482;10.238;2022-07-21T23:45:54;24.80;;;17.90;;
3881;SDS011;1956;53.482;10.238;2022-07-21T23:50:54;25.70;;;15.77;;
3881;SDS011;1956;53.482;10.238;2022-07-21T23:55:55;25.77;;;17.77;;
